Iruya, Argentina
Current Conditions -  °F | °C
As of 10:00 PM on Thursday 27 Nov 2014 (Local Time) from SLTJ Reporting Station
Drizzle Drizzle  
Wind Chill: 61°   Ceiling: 2000
Heat Index: 61°   Visibility: 2.5mi
Dew Point: 59°   Wind: 0mph
Humidity: 94%   Direction: NA
Pressure: 30.21"   Gusts: NA
Location:  22.84°S, 65.23°W
Report Text: SLTJ 280100Z 00000KT 4000N -DZ SCT015 BKN020 OVCO70 16/15 Q1023
Loading
Personal Weather Stations






























Interactive Weather Map New forecast layout! Learn more

10-Day Weather Forecast

Advertisements
Track Severe Weather on mobile